createdAt,value
2018-07-05T00:00:19.393Z,86.20
2018-07-05T00:02:58.745Z,86.80
2018-07-05T00:08:11.425Z,88.40
2018-07-05T00:10:50.707Z,88.90
2018-07-05T00:13:30.019Z,88.70
2018-07-05T00:16:09.229Z,88.70
2018-07-05T00:18:49.249Z,87.60
2018-07-05T00:21:28.701Z,87.90
2018-07-05T00:24:07.901Z,88.10
2018-07-05T00:26:47.085Z,87.80
2018-07-05T00:29:26.225Z,87.60
2018-07-05T00:32:05.596Z,87.40
2018-07-05T00:34:44.836Z,87.40
2018-07-05T00:37:24.119Z,87.50
2018-07-05T00:40:03.320Z,87.10
2018-07-05T00:42:42.583Z,87.00
2018-07-05T00:45:21.955Z,87.00
2018-07-05T00:48:01.197Z,87.30
2018-07-05T00:50:40.484Z,86.80
2018-07-05T00:53:19.761Z,87.00
2018-07-05T00:55:59.454Z,86.90
2018-07-05T00:58:38.637Z,86.80
2018-07-05T01:01:17.901Z,86.40
2018-07-05T01:03:57.046Z,86.60
2018-07-05T01:06:36.361Z,86.20
2018-07-05T01:09:15.552Z,86.00
2018-07-05T01:11:54.980Z,84.70
2018-07-05T01:14:34.308Z,84.70
2018-07-05T01:17:13.496Z,85.50
2018-07-05T01:19:52.693Z,85.60
2018-07-05T01:22:31.939Z,85.90
2018-07-05T01:25:11.200Z,86.90
2018-07-05T01:27:50.424Z,87.60
2018-07-05T01:30:29.700Z,86.90
2018-07-05T01:33:08.942Z,87.20
2018-07-05T01:35:48.429Z,87.00
2018-07-05T01:38:27.557Z,87.90
2018-07-05T01:41:06.786Z,86.70
2018-07-05T01:43:46.116Z,87.50
2018-07-05T01:46:25.474Z,89.10
2018-07-05T01:49:04.673Z,88.70
2018-07-05T01:51:43.948Z,88.80
2018-07-05T01:54:23.220Z,89.30
2018-07-05T01:57:02.665Z,89.10
2018-07-05T01:59:41.945Z,89.10
2018-07-05T02:02:21.157Z,88.80
2018-07-05T02:05:00.500Z,88.90
2018-07-05T02:07:39.672Z,88.80
2018-07-05T02:10:19.122Z,89.20
2018-07-05T02:12:58.289Z,89.40
2018-07-05T02:15:37.468Z,89.10
2018-07-05T02:18:16.642Z,88.70
2018-07-05T02:20:56.065Z,88.80
2018-07-05T02:23:35.277Z,88.40
2018-07-05T02:26:14.453Z,88.40
2018-07-05T02:28:53.713Z,88.20
2018-07-05T02:31:32.801Z,87.80
2018-07-05T02:34:11.886Z,87.60
2018-07-05T02:36:50.971Z,87.20
2018-07-05T02:39:35.637Z,87.90
2018-07-05T02:42:14.865Z,87.70
2018-07-05T02:44:54.545Z,87.80
2018-07-05T02:47:33.873Z,87.60
2018-07-05T02:50:13.333Z,87.50
2018-07-05T02:52:52.631Z,88.30
2018-07-05T02:55:31.734Z,87.90
2018-07-05T02:58:11.108Z,88.00
2018-07-05T03:00:50.270Z,88.20
2018-07-05T03:03:29.666Z,88.50
2018-07-05T03:06:08.848Z,88.60
2018-07-05T03:11:21.816Z,88.10
2018-07-05T03:14:00.977Z,87.50
2018-07-05T03:16:40.154Z,87.20
2018-07-05T03:19:19.384Z,86.50
2018-07-05T03:22:03.104Z,88.00
2018-07-05T03:24:42.405Z,88.60
2018-07-05T03:27:21.574Z,88.40
2018-07-05T03:30:00.980Z,88.20
2018-07-05T03:32:40.192Z,87.50
2018-07-05T03:35:19.501Z,88.50
2018-07-05T03:37:58.632Z,88.80
2018-07-05T03:40:38.000Z,88.40
2018-07-05T03:43:17.409Z,89.00
2018-07-05T03:45:56.702Z,89.20
2018-07-05T03:48:35.844Z,89.20
2018-07-05T03:51:14.952Z,90.00
2018-07-05T03:53:54.105Z,90.10
2018-07-05T03:56:33.237Z,89.40
2018-07-05T03:59:12.553Z,89.00
2018-07-05T04:01:51.842Z,88.60
2018-07-05T04:04:31.184Z,88.80
2018-07-05T04:07:10.381Z,88.30
2018-07-05T04:09:49.698Z,88.30
2018-07-05T04:12:29.049Z,88.50
2018-07-05T04:15:08.389Z,88.20
2018-07-05T04:17:47.619Z,88.30
2018-07-05T04:20:26.985Z,88.10
2018-07-05T04:23:06.148Z,88.00
2018-07-05T04:25:45.340Z,88.70
2018-07-05T04:28:24.625Z,90.00
2018-07-05T04:31:03.949Z,89.30
2018-07-05T04:33:43.197Z,88.80
2018-07-05T04:36:22.532Z,88.90
2018-07-05T04:39:01.890Z,88.70
2018-07-05T04:42:44.389Z,88.10
2018-07-05T04:45:23.769Z,88.20
2018-07-05T04:48:08.628Z,88.60
2018-07-05T04:50:48.072Z,89.00
2018-07-05T04:53:27.297Z,88.70
2018-07-05T04:56:06.601Z,88.50
2018-07-05T04:58:45.768Z,88.50
2018-07-05T05:01:25.181Z,88.90
2018-07-05T05:04:04.405Z,88.00
2018-07-05T05:06:43.797Z,87.90
2018-07-05T05:09:22.982Z,87.50
2018-07-05T05:12:02.318Z,83.90
2018-07-05T05:14:41.521Z,83.90
2018-07-05T05:17:20.721Z,84.00
2018-07-05T05:19:59.965Z,83.60
2018-07-05T05:22:39.292Z,82.20
2018-07-05T05:25:18.457Z,82.50
2018-07-05T05:27:58.119Z,81.90
2018-07-05T05:30:37.528Z,81.80
2018-07-05T05:33:16.856Z,81.80
2018-07-05T05:35:56.218Z,80.20
2018-07-05T05:38:35.324Z,79.50
2018-07-05T05:41:14.453Z,76.10
2018-07-05T05:43:53.604Z,76.00
2018-07-05T05:46:32.917Z,76.60
2018-07-05T05:49:12.089Z,75.60
2018-07-05T05:51:51.346Z,75.60
2018-07-05T05:54:30.604Z,74.60
2018-07-05T05:57:09.805Z,72.50
2018-07-05T05:59:49.005Z,74.20
2018-07-05T06:02:28.334Z,74.90
2018-07-05T06:05:07.896Z,74.50
2018-07-05T06:07:47.084Z,74.70
2018-07-05T06:10:26.310Z,74.10
2018-07-05T06:13:05.427Z,74.10
2018-07-05T06:15:44.692Z,73.20
2018-07-05T06:18:24.009Z,72.80
2018-07-05T06:21:03.398Z,72.50
2018-07-05T06:23:42.581Z,72.90
2018-07-05T06:26:21.869Z,72.20
2018-07-05T06:29:01.226Z,72.10
2018-07-05T06:31:40.675Z,72.00
2018-07-05T06:34:19.745Z,71.20
2018-07-05T06:36:58.956Z,70.40
2018-07-05T06:39:38.277Z,69.80
2018-07-05T06:42:17.460Z,69.90
2018-07-05T06:44:56.696Z,69.40
2018-07-05T06:47:35.996Z,69.10
2018-07-05T06:50:15.156Z,68.10
2018-07-05T06:52:54.436Z,66.90
2018-07-05T06:55:33.702Z,66.10
2018-07-05T06:58:13.140Z,66.60
2018-07-05T07:00:52.281Z,67.90
2018-07-05T07:03:31.494Z,67.10
2018-07-05T07:06:10.814Z,67.60
2018-07-05T07:08:50.320Z,67.20
2018-07-05T07:11:29.583Z,66.90
2018-07-05T07:14:08.920Z,67.10
2018-07-05T07:16:48.070Z,68.00
2018-07-05T07:19:27.414Z,68.60
2018-07-05T07:22:06.732Z,69.10
2018-07-05T07:24:46.097Z,68.90
2018-07-05T07:27:25.345Z,67.80
2018-07-05T07:30:04.501Z,68.10
2018-07-05T07:32:43.677Z,67.20
2018-07-05T07:35:22.872Z,67.70
2018-07-05T07:40:35.407Z,65.40
2018-07-05T07:43:02.265Z,65.90
2018-07-05T07:45:29.162Z,66.10
2018-07-05T07:47:56.007Z,67.00
2018-07-05T07:50:22.829Z,67.30
2018-07-05T07:52:49.713Z,67.60
2018-07-05T07:55:16.569Z,66.50
2018-07-05T07:57:43.393Z,66.50
2018-07-05T08:00:10.256Z,66.80
2018-07-05T08:02:37.064Z,66.60
2018-07-05T08:05:03.920Z,66.30
2018-07-05T08:07:30.893Z,66.30
2018-07-05T08:09:57.801Z,66.50
2018-07-05T08:12:24.721Z,64.60
2018-07-05T08:14:51.533Z,65.40
2018-07-05T08:17:18.376Z,66.10
2018-07-05T08:19:45.225Z,65.60
2018-07-05T08:22:12.043Z,65.30
2018-07-05T08:24:38.979Z,65.50
2018-07-05T08:27:05.920Z,65.70
2018-07-05T08:29:32.765Z,66.60
2018-07-05T08:31:59.619Z,66.30
2018-07-05T08:34:26.421Z,65.70
2018-07-05T08:36:53.267Z,67.20
2018-07-05T08:39:20.093Z,66.70
2018-07-05T08:41:47.651Z,67.60
2018-07-05T08:44:14.519Z,66.80
2018-07-05T08:46:41.765Z,66.90
2018-07-05T08:49:08.653Z,67.80
2018-07-05T08:51:35.460Z,67.20
2018-07-05T08:54:02.325Z,66.50
2018-07-05T08:56:29.174Z,65.60
2018-07-05T08:58:55.981Z,65.40
2018-07-05T09:01:22.837Z,63.30
2018-07-05T09:03:49.658Z,63.90
2018-07-05T09:06:16.805Z,62.70
2018-07-05T09:08:43.655Z,63.00
2018-07-05T09:11:10.629Z,62.00
2018-07-05T09:13:37.651Z,59.90
2018-07-05T09:16:04.493Z,60.90
2018-07-05T09:18:31.346Z,61.80
2018-07-05T09:20:58.221Z,59.90
2018-07-05T09:23:25.104Z,60.50
2018-07-05T09:25:51.904Z,61.00
2018-07-05T09:28:18.721Z,61.70
2018-07-05T09:30:45.569Z,61.30
2018-07-05T09:33:12.404Z,60.90
2018-07-05T09:35:39.218Z,60.40
2018-07-05T09:38:06.072Z,61.10
2018-07-05T09:40:32.885Z,60.70
2018-07-05T09:42:59.753Z,61.30
2018-07-05T09:45:26.602Z,61.60
2018-07-05T09:47:53.419Z,60.90
2018-07-05T09:50:20.266Z,61.90
2018-07-05T09:52:47.184Z,61.60
2018-07-05T09:55:13.996Z,61.10
2018-07-05T09:57:40.842Z,62.30
2018-07-05T10:00:10.545Z,62.00
2018-07-05T10:02:37.740Z,60.80
2018-07-05T10:05:04.714Z,62.20
2018-07-05T10:07:32.068Z,61.00
2018-07-05T10:09:58.997Z,60.70
2018-07-05T10:12:26.041Z,59.40
2018-07-05T10:14:52.985Z,60.80
2018-07-05T10:17:19.889Z,60.70
2018-07-05T10:19:46.833Z,59.00
2018-07-05T10:22:13.725Z,59.10
2018-07-05T10:24:40.561Z,59.10
2018-07-05T10:27:07.706Z,58.30
2018-07-05T10:29:46.893Z,59.00
2018-07-05T10:32:26.272Z,59.10
2018-07-05T10:34:53.848Z,59.20
2018-07-05T10:37:22.894Z,59.90
2018-07-05T10:40:02.805Z,57.90
2018-07-05T10:42:42.385Z,57.50
2018-07-05T10:45:21.754Z,56.20
2018-07-05T10:48:01.393Z,58.50
2018-07-05T10:50:40.721Z,56.30
2018-07-05T10:53:19.929Z,56.90
2018-07-05T10:55:59.167Z,56.30
2018-07-05T10:58:38.446Z,58.20
2018-07-05T11:01:17.621Z,57.80
2018-07-05T11:03:56.892Z,57.20
2018-07-05T11:06:36.253Z,56.20
2018-07-05T11:09:15.600Z,56.70
2018-07-05T11:11:54.903Z,57.00
2018-07-05T11:14:34.218Z,56.50
2018-07-05T11:17:13.371Z,55.20
2018-07-05T11:19:52.574Z,56.00
2018-07-05T11:22:31.914Z,54.90
2018-07-05T11:25:11.185Z,54.80
2018-07-05T11:27:50.605Z,54.10
2018-07-05T11:30:29.791Z,54.80
2018-07-05T11:33:09.145Z,55.30
2018-07-05T11:35:48.456Z,56.10
2018-07-05T11:38:27.648Z,55.80
2018-07-05T11:41:06.909Z,55.30
2018-07-05T11:43:46.225Z,55.50
2018-07-05T11:46:25.435Z,55.30
2018-07-05T11:49:04.634Z,55.90
2018-07-05T11:51:44.155Z,55.40
2018-07-05T11:54:23.496Z,56.20
2018-07-05T11:57:03.239Z,55.70
2018-07-05T11:59:42.706Z,56.80
2018-07-05T12:02:22.214Z,57.50
2018-07-05T12:05:01.862Z,55.70
2018-07-05T12:07:41.311Z,55.60
2018-07-05T12:10:20.758Z,56.30
2018-07-05T12:13:00.304Z,54.70
2018-07-05T12:15:39.958Z,53.90
2018-07-05T12:18:19.261Z,54.20
2018-07-05T12:20:58.558Z,55.40
2018-07-05T12:23:38.100Z,55.50
2018-07-05T12:26:17.395Z,57.50
2018-07-05T12:28:56.601Z,57.80
2018-07-05T12:31:35.890Z,57.70
2018-07-05T12:34:15.189Z,58.20
2018-07-05T12:36:54.533Z,58.80
2018-07-05T12:39:33.685Z,58.70
2018-07-05T12:42:12.884Z,59.70
2018-07-05T12:44:52.231Z,60.60
2018-07-05T12:47:31.620Z,60.60
2018-07-05T12:50:10.901Z,61.80
2018-07-05T12:52:50.137Z,61.80
2018-07-05T12:55:29.484Z,61.90
2018-07-05T12:58:08.733Z,61.50
2018-07-05T13:00:48.021Z,61.50
2018-07-05T13:03:27.241Z,61.20
2018-07-05T13:06:06.516Z,63.40
2018-07-05T13:08:45.721Z,65.90
2018-07-05T13:11:25.033Z,85.50
2018-07-05T13:14:04.212Z,92.10
2018-07-05T13:16:43.497Z,92.20
2018-07-05T13:19:22.631Z,93.50
2018-07-05T13:22:02.217Z,95.80
2018-07-05T13:24:41.409Z,97.80
2018-07-05T13:27:20.809Z,98.50
2018-07-05T13:29:59.989Z,95.50
2018-07-05T13:32:39.240Z,98.50
2018-07-05T13:35:18.296Z,96.20
2018-07-05T13:37:57.553Z,96.40
2018-07-05T13:40:36.676Z,97.00
2018-07-05T13:43:15.862Z,96.70
2018-07-05T13:45:55.093Z,96.50
2018-07-05T13:48:35.310Z,95.00
2018-07-05T13:51:14.659Z,90.60
2018-07-05T13:53:54.057Z,90.50
2018-07-05T13:56:33.213Z,87.00
2018-07-05T13:59:12.580Z,85.50
2018-07-05T14:01:51.924Z,83.00
2018-07-05T14:04:31.246Z,80.40
2018-07-05T14:07:10.487Z,79.00
2018-07-05T14:09:49.666Z,76.70
2018-07-05T14:12:28.921Z,75.10
2018-07-05T14:15:08.264Z,76.20
2018-07-05T14:17:47.769Z,75.30
2018-07-05T14:20:27.513Z,74.30
2018-07-05T14:23:06.774Z,72.30
2018-07-05T14:25:46.185Z,73.30
2018-07-05T14:28:25.502Z,72.70
2018-07-05T14:31:04.768Z,70.70
2018-07-05T14:33:44.081Z,71.60
2018-07-05T14:36:23.289Z,71.50
2018-07-05T14:39:02.925Z,71.00
2018-07-05T14:41:42.325Z,71.60
2018-07-05T14:44:21.625Z,73.10
2018-07-05T14:47:00.965Z,72.40
2018-07-05T14:49:40.178Z,73.60
2018-07-05T14:52:19.557Z,73.50
2018-07-05T14:57:32.478Z,74.60
2018-07-05T15:00:11.739Z,75.40
2018-07-05T15:02:50.921Z,75.20
2018-07-05T15:05:30.161Z,75.80
2018-07-05T15:08:09.603Z,76.10
2018-07-05T15:10:48.932Z,76.30
2018-07-05T15:13:28.184Z,76.40
2018-07-05T15:16:07.422Z,76.70
2018-07-05T15:18:46.922Z,77.00
2018-07-05T15:21:26.213Z,76.10
2018-07-05T15:24:05.509Z,76.30
2018-07-05T15:26:44.830Z,76.90
2018-07-05T15:29:24.055Z,76.50
2018-07-05T15:32:03.360Z,75.90
2018-07-05T15:34:42.663Z,75.50
2018-07-05T15:37:21.977Z,75.50
2018-07-05T15:40:01.344Z,75.40
2018-07-05T15:42:40.501Z,76.30
2018-07-05T15:45:19.817Z,76.00
2018-07-05T15:47:59.001Z,75.10
2018-07-05T15:50:38.465Z,74.60
2018-07-05T15:53:17.788Z,74.00
2018-07-05T15:55:57.056Z,74.50
2018-07-05T15:58:36.391Z,74.90
2018-07-05T16:01:15.609Z,74.90
2018-07-05T16:03:54.881Z,74.50
2018-07-05T16:06:34.090Z,75.10
2018-07-05T16:09:13.244Z,74.00
2018-07-05T16:11:52.403Z,73.90
2018-07-05T16:14:31.635Z,73.90
2018-07-05T16:17:10.786Z,74.60
2018-07-05T16:19:50.037Z,74.90
2018-07-05T16:22:29.290Z,75.00
2018-07-05T16:25:08.613Z,74.70
2018-07-05T16:27:47.800Z,75.80
2018-07-05T16:30:27.180Z,75.80
2018-07-05T16:33:06.437Z,75.70
2018-07-05T16:35:45.806Z,76.50
2018-07-05T16:38:25.073Z,76.10
2018-07-05T16:41:04.309Z,76.50
2018-07-05T16:43:43.557Z,76.30
2018-07-05T16:46:22.973Z,76.10
2018-07-05T16:49:02.238Z,76.10
2018-07-05T16:51:41.436Z,75.40
2018-07-05T16:54:20.647Z,74.60
2018-07-05T16:57:00.074Z,74.30
2018-07-05T16:59:39.421Z,73.90
2018-07-05T17:02:18.718Z,73.70
2018-07-05T17:04:58.078Z,73.30
2018-07-05T17:07:37.284Z,72.80
2018-07-05T17:10:16.673Z,72.60
2018-07-05T17:12:56.455Z,72.40
2018-07-05T17:15:35.771Z,71.20
2018-07-05T17:18:15.196Z,70.40
2018-07-05T17:20:54.532Z,70.70
2018-07-05T17:23:33.775Z,70.90
2018-07-05T17:26:13.155Z,71.60
2018-07-05T17:28:52.457Z,71.20
2018-07-05T17:31:31.689Z,71.60
2018-07-05T17:34:10.934Z,71.50
2018-07-05T17:36:50.273Z,72.30
2018-07-05T17:39:29.717Z,72.80
2018-07-05T17:42:08.885Z,73.20
2018-07-05T17:44:48.270Z,73.50
2018-07-05T17:47:27.430Z,73.50
2018-07-05T17:50:06.643Z,73.70
2018-07-05T17:52:45.918Z,74.30
2018-07-05T17:55:25.377Z,75.00
2018-07-05T17:58:04.717Z,74.60
2018-07-05T18:00:44.181Z,75.10
2018-07-05T18:03:23.701Z,75.50
2018-07-05T18:06:04.090Z,76.30
2018-07-05T18:08:43.445Z,76.30
2018-07-05T18:11:22.885Z,76.80
2018-07-05T18:14:02.265Z,78.80
2018-07-05T18:16:41.521Z,78.30
2018-07-05T18:19:20.943Z,79.40
2018-07-05T18:22:00.209Z,80.80
2018-07-05T18:24:39.548Z,82.50
2018-07-05T18:27:18.872Z,83.10
2018-07-05T18:29:58.253Z,83.00
2018-07-05T18:32:37.341Z,82.90
2018-07-05T18:35:17.220Z,83.60
2018-07-05T18:37:56.565Z,83.90
2018-07-05T18:40:35.881Z,83.30
2018-07-05T18:43:15.207Z,83.80
2018-07-05T18:45:54.466Z,84.00
2018-07-05T18:48:34.326Z,86.60
2018-07-05T18:51:14.658Z,87.10
2018-07-05T18:53:55.869Z,88.50
2018-07-05T18:56:35.326Z,87.60
2018-07-05T18:59:14.997Z,87.80
2018-07-05T19:01:54.630Z,87.90
2018-07-05T19:04:33.957Z,88.70
2018-07-05T19:07:13.181Z,88.80
2018-07-05T19:09:52.606Z,88.90
2018-07-05T19:12:32.065Z,89.30
2018-07-05T19:15:11.384Z,88.20
2018-07-05T19:17:50.620Z,88.10
2018-07-05T19:20:29.989Z,87.20
2018-07-05T19:23:09.298Z,86.70
2018-07-05T19:25:49.487Z,86.00
2018-07-05T19:28:29.167Z,83.50
2018-07-05T19:31:08.423Z,82.60
2018-07-05T19:33:47.678Z,83.30
2018-07-05T19:36:26.924Z,84.00
2018-07-05T19:39:06.432Z,84.80
2018-07-05T19:41:45.763Z,85.10
2018-07-05T19:44:25.062Z,85.50
2018-07-05T19:47:04.463Z,85.90
2018-07-05T19:49:43.678Z,86.00
2018-07-05T19:52:22.986Z,85.70
2018-07-05T19:55:02.416Z,85.20
2018-07-05T19:57:41.657Z,85.20
2018-07-05T20:00:20.899Z,85.20
2018-07-05T20:03:00.117Z,85.00
2018-07-05T20:05:39.329Z,85.00
2018-07-05T20:08:18.469Z,85.00
2018-07-05T20:10:57.612Z,85.30
2018-07-05T20:13:37.520Z,85.10
2018-07-05T20:16:16.949Z,85.10
2018-07-05T20:18:56.359Z,84.90
2018-07-05T20:21:35.818Z,84.90
2018-07-05T20:24:15.115Z,84.90
2018-07-05T20:26:54.674Z,85.40
2018-07-05T20:29:33.999Z,86.30
2018-07-05T20:32:13.205Z,87.30
2018-07-05T20:34:52.476Z,88.50
2018-07-05T20:37:31.825Z,89.30
2018-07-05T20:40:11.118Z,89.30
2018-07-05T20:42:50.381Z,90.00
2018-07-05T20:45:30.633Z,91.10
2018-07-05T20:48:10.203Z,91.20
2018-07-05T20:50:49.529Z,92.40
2018-07-05T20:53:28.762Z,92.30
2018-07-05T20:56:08.104Z,93.30
2018-07-05T20:58:47.528Z,94.80
2018-07-05T21:01:26.640Z,98.50
2018-07-05T21:04:05.884Z,98.50
2018-07-05T21:06:45.241Z,98.50
2018-07-05T21:09:24.573Z,98.50
2018-07-05T21:12:03.784Z,98.50
2018-07-05T21:14:42.983Z,98.50
2018-07-05T21:17:22.297Z,98.50
2018-07-05T21:20:01.453Z,98.50
2018-07-05T21:22:40.616Z,98.50
2018-07-05T21:25:19.864Z,98.50
2018-07-05T21:27:59.153Z,98.50
2018-07-05T21:30:38.529Z,98.50
2018-07-05T21:33:17.692Z,98.50
2018-07-05T21:35:57.009Z,98.50
2018-07-05T21:38:36.333Z,98.50
2018-07-05T21:41:15.541Z,98.50
2018-07-05T21:43:54.833Z,98.50
2018-07-05T21:46:34.046Z,98.50
2018-07-05T21:49:13.332Z,98.50
2018-07-05T21:51:52.650Z,98.50
2018-07-05T21:54:31.976Z,98.50
2018-07-05T21:57:11.313Z,98.50
2018-07-05T21:59:50.488Z,98.50
2018-07-05T22:02:29.671Z,98.50
2018-07-05T22:07:44.481Z,98.50
2018-07-05T22:10:23.850Z,98.50
2018-07-05T22:13:03.032Z,98.00
2018-07-05T22:15:42.350Z,98.50
2018-07-05T22:18:27.189Z,98.10
2018-07-05T22:21:08.812Z,96.90
2018-07-05T22:23:53.715Z,97.80
2018-07-05T22:26:37.509Z,97.50
2018-07-05T22:29:22.452Z,97.10
2018-07-05T22:32:01.643Z,96.30
2018-07-05T22:34:40.913Z,96.60
2018-07-05T22:37:20.076Z,97.20
2018-07-05T22:39:59.240Z,97.10
2018-07-05T22:42:38.653Z,97.40
2018-07-05T22:45:17.899Z,97.30
2018-07-05T22:47:57.121Z,96.90
2018-07-05T22:50:36.288Z,97.50
2018-07-05T22:53:15.621Z,97.30
2018-07-05T22:55:54.860Z,96.90
2018-07-05T22:58:34.368Z,96.70
2018-07-05T23:01:13.832Z,97.10
2018-07-05T23:03:53.274Z,96.60
2018-07-05T23:06:32.631Z,96.90
2018-07-05T23:09:12.040Z,96.60
2018-07-05T23:11:51.353Z,95.60
2018-07-05T23:14:30.940Z,96.00
2018-07-05T23:17:10.470Z,95.80
2018-07-05T23:19:49.969Z,96.40
2018-07-05T23:22:29.543Z,96.60
2018-07-05T23:25:09.155Z,95.90
2018-07-05T23:27:48.747Z,95.70
2018-07-05T23:30:28.382Z,95.80
2018-07-05T23:33:07.929Z,96.20
2018-07-05T23:35:47.494Z,96.00
2018-07-05T23:38:26.958Z,96.20
2018-07-05T23:41:06.475Z,96.20
2018-07-05T23:43:45.812Z,96.30
2018-07-05T23:46:25.244Z,97.60
2018-07-05T23:49:04.513Z,98.10
2018-07-05T23:51:43.801Z,98.20
2018-07-05T23:54:23.070Z,98.00
2018-07-05T23:57:02.253Z,98.50
2018-07-05T23:59:41.540Z,98.50
